There are no active watches, warnings or advisories



For GOD so loved the world that HE gave HIS one and only SON, that whoever believes in HIM shall not perish but have eternal life.


Thunder radar more information blitzortung!


Rain radar more information rain snow radar



Select another period ( hide this area )

Units Period Custom range Directly to
Metric English Both
Daily Weekly Monthly Yearly
use both date-selectors for a custom range
previous Day
With this date

WeatherUnderground graphs for this period ( click here )


Daily Summary for Thursday Oct 17 2019
Time Temp. ( °C ) Dew pt. ( °C ) Wind ( km/h ) from Gust ( km/h ) Pressure ( hPa ) Humid.( % ) Rainrate ( cm ) Solar ( W/m2 )
High8,3 7,1 24,1 WNW ( 431/798 ) 33,3 999,9 92 0,51 26
Average7,6 5,9 11,7 WNW #61/110 19,2 998,9 89 0,00 14 #15/110
Low7,1 5,3 5,3   7,4 996,5 86 -  
Daily Tabular details for Thursday Oct 17 2019
Time Temp. ( °C ) Dew pt. ( °C ) Wind ( km/h ) from Gust ( km/h ) Pressure ( hPa ) Humid.( % ) Rainrate ( cm ) Solar ( W/m2 )
00:00 8,3 7,1 10,9 NW 16,7 997,5 92 - -
00:05 8,3 7,1 5,3 WNW 11,3 997,5 92 - -
00:10 8,2 6,8 8,9 West 14,8 997,9 91 - -
00:15 8,2 6,8 10,0 WNW 16,7 997,9 91 - -
00:20 8,2 6,8 5,5 WNW 7,4 997,9 91 - -
00:25 8,1 6,7 14,0 West 24,1 997,5 91 - -
00:30 7,9 6,6 13,4 WSW 20,4 997,5 91 - -
00:35 7,9 6,3 7,9 WNW 13,0 997,5 90 - -
00:40 7,9 6,3 12,6 WNW 18,5 997,5 90 - -
00:45 7,8 6,3 12,2 WNW 18,5 997,5 90 - -
00:50 7,8 6,2 7,9 WNW 14,5 997,5 90 - -
00:55 7,8 6,2 8,5 WNW 11,1 997,5 90 - -
01:00 7,7 6,1 10,1 WNW 14,8 997,5 90 - -
01:05 7,6 6,1 8,9 WNW 14,8 997,5 90 - -
01:10 7,6 6,1 8,5 WNW 14,8 997,2 90 - -
01:15 7,6 6,0 8,9 NW 13,0 997,5 90 - -
01:20 7,5 5,9 6,3 WNW 16,7 997,5 90 - -
01:25 7,5 5,9 6,4 NW 16,7 997,5 90 - -
01:30 7,6 6,0 9,2 WNW 18,5 997,2 90 - -
01:35 7,6 6,0 11,9 WNW 22,2 997,2 90 - -
01:40 7,6 6,0 5,3 WNW 11,3 997,2 90 - -
01:45 7,6 6,0 8,9 West 16,7 997,2 90 - -
01:50 7,6 6,0 7,9 NW 13,0 997,2 90 - -
01:55 7,6 6,0 16,3 NW 20,4 997,2 90 - -
02:00 7,6 6,0 8,9 WNW 13,0 997,2 90 - -
02:05 7,6 6,0 7,1 West 18,5 997,2 90 - -
02:10 7,6 6,0 13,2 WNW 25,9 997,2 90 - -
02:15 7,6 6,0 9,8 NW 16,7 997,2 90 - -
02:20 7,6 6,1 8,2 NW 16,7 997,2 90 - -
02:25 7,6 6,1 6,6 NW 9,3 997,2 90 - -
02:30 7,6 6,2 12,4 WNW 18,5 997,2 91 - -
02:35 7,6 6,2 14,6 WNW 25,9 997,2 91 - -
02:40 7,6 6,1 10,9 West 20,4 997,2 90 - -
02:45 7,6 6,1 10,8 WNW 19,3 997,2 90 - -
02:50 7,6 6,1 8,2 NW 13,0 997,2 90 - -
02:55 7,6 6,1 8,9 West 16,7 997,2 90 - -
03:00 7,6 6,1 8,0 WNW 11,1 997,2 90 - -
03:05 7,7 6,3 7,7 NW 14,5 997,2 91 - -
03:10 7,7 6,1 7,9 WNW 18,5 997,2 90 - -
03:15 7,6 6,1 9,7 WNW 16,7 997,2 90 - -
03:20 7,6 6,2 12,7 NW 18,5 997,2 91 - -
03:25 7,6 6,1 12,9 West 18,5 997,2 90 - -
03:30 7,6 6,1 13,2 NW 22,2 997,2 90 - -
03:35 7,7 6,1 13,7 West 22,5 996,8 90 - -
03:40 7,7 6,1 14,0 NW 25,9 996,8 90 - -
03:45 7,7 6,1 12,4 NW 19,3 996,8 90 - -
03:50 7,7 6,2 15,1 WNW 27,8 996,8 90 - -
03:55 7,7 6,0 12,7 WNW 22,2 996,5 89 0,25 -
04:00 7,7 5,9 19,6 WNW 29,6 996,8 89 0,25 -
04:05 7,7 5,9 11,9 WNW 18,5 996,8 89 0,25 -
04:10 7,6 5,9 18,5 NW 25,9 996,8 89 0,25 -
04:15 7,6 5,7 10,8 NW 27,8 997,2 88 0,25 -
04:20 7,5 5,7 8,9 WNW 20,4 997,2 88 0,25 -
04:25 7,5 5,7 13,7 West 22,2 997,2 88 0,25 -
04:30 7,4 5,6 14,5 NW 22,2 997,2 88 0,25 -
04:35 7,4 5,6 16,3 WNW 20,4 997,2 88 0,25 -
04:40 7,4 5,6 6,1 WNW 16,7 997,2 88 0,25 -
04:45 7,3 5,5 10,6 NW 14,8 997,2 88 0,25 -
04:50 7,3 5,3 16,1 WNW 20,4 997,2 87 0,25 -
04:55 7,3 5,4 7,4 WNW 16,7 997,2 88 - -
05:00 7,3 5,3 16,4 WNW 22,2 997,2 87 - -
05:05 7,2 5,4 7,9 West 14,8 997,2 88 - -
05:10 7,2 5,4 7,2 WNW 14,8 997,5 88 - -
05:15 7,2 5,4 11,7 WNW 22,5 997,5 88 - -
05:20 7,2 5,4 7,4 WNW 13,0 997,5 88 - -
05:25 7,2 5,4 10,8 NW 16,7 997,5 88 - -
05:30 7,2 5,3 11,3 WNW 20,4 997,5 88 - -
05:35 7,2 5,3 15,4 WNW 22,5 997,9 88 - -
05:40 7,2 5,3 6,3 WNW 9,3 997,9 88 - -
05:45 7,2 5,3 12,9 WNW 20,4 997,5 88 - -
05:50 7,1 5,4 7,4 WNW 14,8 997,5 89 - -
05:55 7,1 5,4 10,5 WNW 20,4 997,5 89 - -
06:00 7,1 5,4 15,3 WNW 18,5 997,9 89 - -
06:05 7,1 5,5 10,6 WNW 18,5 997,9 90 - -
06:10 7,1 5,5 11,4 West 22,2 997,9 90 - -
06:15 7,1 5,5 10,9 WNW 18,5 997,9 90 - -
06:20 7,1 5,6 8,0 WNW 18,5 997,9 90 - -
06:25 7,1 5,7 9,3 WNW 18,5 998,2 91 - -
06:30 7,2 5,8 6,4 NW 14,8 998,2 91 - -
06:35 7,2 5,8 10,3 WNW 16,7 998,2 91 - -
06:40 7,2 5,8 12,2 West 18,5 998,2 91 - -
06:45 7,3 6,1 10,9 WNW 16,7 998,2 92 - -
06:50 7,4 6,2 7,6 WNW 13,0 998,2 92 - -
06:55 7,4 6,2 7,2 WNW 14,8 998,2 92 - -
07:00 7,5 6,3 19,0 WNW 25,9 998,5 92 - -
07:05 7,5 6,3 14,2 NW 18,5 998,5 92 - -
07:10 7,6 6,3 17,2 WNW 25,9 998,5 92 - -
07:15 7,6 6,4 15,1 WNW 22,2 998,5 92 - -
07:20 7,7 6,3 8,7 NW 18,5 998,5 91 - -
07:25 7,7 6,3 13,2 NNE 25,9 998,9 91 - -
07:30 7,8 6,2 12,2 NNW 20,9 998,9 90 - -
07:35 7,8 6,2 22,9 NNW 31,5 998,9 90 - -
07:40 7,8 6,1 13,0 West 18,5 998,9 89 - -
07:45 7,8 5,9 17,5 WNW 25,9 998,9 88 - -
07:50 7,9 6,0 14,5 NW 24,1 999,2 88 - -
07:55 7,9 5,9 21,7 WNW 29,6 999,2 87 - 5
08:00 7,9 5,9 19,6 WNW 31,5 999,2 87 - 5
08:05 7,9 5,7 24,1 NW 33,3 999,2 86 - 7
08:10 7,9 5,7 9,0 West 14,8 999,2 86 - 7
08:15 7,9 5,7 9,8 WNW 20,4 999,2 86 - 9
08:20 7,8 5,6 13,2 NW 20,4 999,5 86 - 9
08:25 7,8 5,7 14,8 West 18,5 999,5 87 - 12
08:30 7,7 5,7 12,9 NW 18,5 999,5 87 - 12
08:35 7,6 5,6 14,0 NW 20,4 999,5 87 0,25 16
08:40 7,6 5,7 17,9 WNW 27,8 999,5 88 0,25 18
08:45 7,5 5,7 15,8 NW 18,5 999,9 88 0,25 23
08:50 7,4 5,6 15,6 WNW 24,1 999,9 88 0,25 19
08:55 7,4 5,7 19,0 NNW 25,9 999,9 89 0,25 26
09:00 7,3 5,7 12,9 WNW 24,1 999,9 89 0,25 19
09:05 7,3 5,7 11,9 West 18,5 999,9 89 0,51 16
Daily Summary for Thursday Oct 17 2019
Time Temp. ( °C ) Dew pt. ( °C ) Wind ( km/h ) from Gust ( km/h ) Pressure ( hPa ) Humid.( % ) Rainrate ( cm ) Solar ( W/m2 )
High8,3 7,1 24,1 WNW ( 431/798 ) 33,3 999,9 92 0,51 26
Average7,6 5,9 11,7 WNW #61/110 19,2 998,9 89 0,00 14 #15/110
Low7,1 5,3 5,3   7,4 996,5 86 -  
Daily Tabular details for Thursday Oct 17 2019
Time Temp. ( °C ) Dew pt. ( °C ) Wind ( km/h ) from Gust ( km/h ) Pressure ( hPa ) Humid.( % ) Rainrate ( cm ) Solar ( W/m2 )
00:00 8,3 7,1 10,9 NW 16,7 997,5 92 - -
00:05 8,3 7,1 5,3 WNW 11,3 997,5 92 - -
00:10 8,2 6,8 8,9 West 14,8 997,9 91 - -
00:15 8,2 6,8 10,0 WNW 16,7 997,9 91 - -
00:20 8,2 6,8 5,5 WNW 7,4 997,9 91 - -
00:25 8,1 6,7 14,0 West 24,1 997,5 91 - -
00:30 7,9 6,6 13,4 WSW 20,4 997,5 91 - -
00:35 7,9 6,3 7,9 WNW 13,0 997,5 90 - -
00:40 7,9 6,3 12,6 WNW 18,5 997,5 90 - -
00:45 7,8 6,3 12,2 WNW 18,5 997,5 90 - -
00:50 7,8 6,2 7,9 WNW 14,5 997,5 90 - -
00:55 7,8 6,2 8,5 WNW 11,1 997,5 90 - -
01:00 7,7 6,1 10,1 WNW 14,8 997,5 90 - -
01:05 7,6 6,1 8,9 WNW 14,8 997,5 90 - -
01:10 7,6 6,1 8,5 WNW 14,8 997,2 90 - -
01:15 7,6 6,0 8,9 NW 13,0 997,5 90 - -
01:20 7,5 5,9 6,3 WNW 16,7 997,5 90 - -
01:25 7,5 5,9 6,4 NW 16,7 997,5 90 - -
01:30 7,6 6,0 9,2 WNW 18,5 997,2 90 - -
01:35 7,6 6,0 11,9 WNW 22,2 997,2 90 - -
01:40 7,6 6,0 5,3 WNW 11,3 997,2 90 - -
01:45 7,6 6,0 8,9 West 16,7 997,2 90 - -
01:50 7,6 6,0 7,9 NW 13,0 997,2 90 - -
01:55 7,6 6,0 16,3 NW 20,4 997,2 90 - -
02:00 7,6 6,0 8,9 WNW 13,0 997,2 90 - -
02:05 7,6 6,0 7,1 West 18,5 997,2 90 - -
02:10 7,6 6,0 13,2 WNW 25,9 997,2 90 - -
02:15 7,6 6,0 9,8 NW 16,7 997,2 90 - -
02:20 7,6 6,1 8,2 NW 16,7 997,2 90 - -
02:25 7,6 6,1 6,6 NW 9,3 997,2 90 - -
02:30 7,6 6,2 12,4 WNW 18,5 997,2 91 - -
02:35 7,6 6,2 14,6 WNW 25,9 997,2 91 - -
02:40 7,6 6,1 10,9 West 20,4 997,2 90 - -
02:45 7,6 6,1 10,8 WNW 19,3 997,2 90 - -
02:50 7,6 6,1 8,2 NW 13,0 997,2 90 - -
02:55 7,6 6,1 8,9 West 16,7 997,2 90 - -
03:00 7,6 6,1 8,0 WNW 11,1 997,2 90 - -
03:05 7,7 6,3 7,7 NW 14,5 997,2 91 - -
03:10 7,7 6,1 7,9 WNW 18,5 997,2 90 - -
03:15 7,6 6,1 9,7 WNW 16,7 997,2 90 - -
03:20 7,6 6,2 12,7 NW 18,5 997,2 91 - -
03:25 7,6 6,1 12,9 West 18,5 997,2 90 - -
03:30 7,6 6,1 13,2 NW 22,2 997,2 90 - -
03:35 7,7 6,1 13,7 West 22,5 996,8 90 - -
03:40 7,7 6,1 14,0 NW 25,9 996,8 90 - -
03:45 7,7 6,1 12,4 NW 19,3 996,8 90 - -
03:50 7,7 6,2 15,1 WNW 27,8 996,8 90 - -
03:55 7,7 6,0 12,7 WNW 22,2 996,5 89 0,25 -
04:00 7,7 5,9 19,6 WNW 29,6 996,8 89 0,25 -
04:05 7,7 5,9 11,9 WNW 18,5 996,8 89 0,25 -
04:10 7,6 5,9 18,5 NW 25,9 996,8 89 0,25 -
04:15 7,6 5,7 10,8 NW 27,8 997,2 88 0,25 -
04:20 7,5 5,7 8,9 WNW 20,4 997,2 88 0,25 -
04:25 7,5 5,7 13,7 West 22,2 997,2 88 0,25 -
04:30 7,4 5,6 14,5 NW 22,2 997,2 88 0,25 -
04:35 7,4 5,6 16,3 WNW 20,4 997,2 88 0,25 -
04:40 7,4 5,6 6,1 WNW 16,7 997,2 88 0,25 -
04:45 7,3 5,5 10,6 NW 14,8 997,2 88 0,25 -
04:50 7,3 5,3 16,1 WNW 20,4 997,2 87 0,25 -
04:55 7,3 5,4 7,4 WNW 16,7 997,2 88 - -
05:00 7,3 5,3 16,4 WNW 22,2 997,2 87 - -
05:05 7,2 5,4 7,9 West 14,8 997,2 88 - -
05:10 7,2 5,4 7,2 WNW 14,8 997,5 88 - -
05:15 7,2 5,4 11,7 WNW 22,5 997,5 88 - -
05:20 7,2 5,4 7,4 WNW 13,0 997,5 88 - -
05:25 7,2 5,4 10,8 NW 16,7 997,5 88 - -
05:30 7,2 5,3 11,3 WNW 20,4 997,5 88 - -
05:35 7,2 5,3 15,4 WNW 22,5 997,9 88 - -
05:40 7,2 5,3 6,3 WNW 9,3 997,9 88 - -
05:45 7,2 5,3 12,9 WNW 20,4 997,5 88 - -
05:50 7,1 5,4 7,4 WNW 14,8 997,5 89 - -
05:55 7,1 5,4 10,5 WNW 20,4 997,5 89 - -
06:00 7,1 5,4 15,3 WNW 18,5 997,9 89 - -
06:05 7,1 5,5 10,6 WNW 18,5 997,9 90 - -
06:10 7,1 5,5 11,4 West 22,2 997,9 90 - -
06:15 7,1 5,5 10,9 WNW 18,5 997,9 90 - -
06:20 7,1 5,6 8,0 WNW 18,5 997,9 90 - -
06:25 7,1 5,7 9,3 WNW 18,5 998,2 91 - -
06:30 7,2 5,8 6,4 NW 14,8 998,2 91 - -
06:35 7,2 5,8 10,3 WNW 16,7 998,2 91 - -
06:40 7,2 5,8 12,2 West 18,5 998,2 91 - -
06:45 7,3 6,1 10,9 WNW 16,7 998,2 92 - -
06:50 7,4 6,2 7,6 WNW 13,0 998,2 92 - -
06:55 7,4 6,2 7,2 WNW 14,8 998,2 92 - -
07:00 7,5 6,3 19,0 WNW 25,9 998,5 92 - -
07:05 7,5 6,3 14,2 NW 18,5 998,5 92 - -
07:10 7,6 6,3 17,2 WNW 25,9 998,5 92 - -
07:15 7,6 6,4 15,1 WNW 22,2 998,5 92 - -
07:20 7,7 6,3 8,7 NW 18,5 998,5 91 - -
07:25 7,7 6,3 13,2 NNE 25,9 998,9 91 - -
07:30 7,8 6,2 12,2 NNW 20,9 998,9 90 - -
07:35 7,8 6,2 22,9 NNW 31,5 998,9 90 - -
07:40 7,8 6,1 13,0 West 18,5 998,9 89 - -
07:45 7,8 5,9 17,5 WNW 25,9 998,9 88 - -
07:50 7,9 6,0 14,5 NW 24,1 999,2 88 - -
07:55 7,9 5,9 21,7 WNW 29,6 999,2 87 - 5
08:00 7,9 5,9 19,6 WNW 31,5 999,2 87 - 5
08:05 7,9 5,7 24,1 NW 33,3 999,2 86 - 7
08:10 7,9 5,7 9,0 West 14,8 999,2 86 - 7
08:15 7,9 5,7 9,8 WNW 20,4 999,2 86 - 9
08:20 7,8 5,6 13,2 NW 20,4 999,5 86 - 9
08:25 7,8 5,7 14,8 West 18,5 999,5 87 - 12
08:30 7,7 5,7 12,9 NW 18,5 999,5 87 - 12
08:35 7,6 5,6 14,0 NW 20,4 999,5 87 0,25 16
08:40 7,6 5,7 17,9 WNW 27,8 999,5 88 0,25 18
08:45 7,5 5,7 15,8 NW 18,5 999,9 88 0,25 23
08:50 7,4 5,6 15,6 WNW 24,1 999,9 88 0,25 19
08:55 7,4 5,7 19,0 NNW 25,9 999,9 89 0,25 26
09:00 7,3 5,7 12,9 WNW 24,1 999,9 89 0,25 19
09:05 7,3 5,7 11,9 West 18,5 999,9 89 0,51 16

Download your copy of this data-set  here

Our weather-data as stored at Weather Underground. Script developed by Jim McMurry. Adapted for the template by Leuven-Template.eu